Terminal Aerodrome Forecast
Issued by NWS Sterling, VA

Current Version | Previous Version | Text Only | Print | Product List | Glossary Off
Versions: 1 2 3 4 5 6 7 8 9 10 11 12 13 14 15 16 17 18 19 20 21 22 23 24 25 26 27

000
FTUS41 KLWX 240525
TAFIAD
TAF
KIAD 240525Z 2406/2512 30004KT P6SM BKN110
     FM240800 33005KT P6SM SCT110
     FM241300 03004KT P6SM FEW250
     FM241600 VRB03KT P6SM FEW050
     FM250600 VRB03KT P6SM SCT250
     FM250900 VRB03KT 5SM BR SCT200=

USA.gov is the U.S. government's official web portal to all federal, state and local government web resources and services.